Time;durP1;ratioP1;P1;durP2;ratioP2;P2;SDS_P1;SDS_P2;PMS_P1;PMS_P2;Temp;Humidity;BMP_temperature;BMP_pressure;BME280_temperature;BME280_humidity;BME280_pressure;Samples;Min_cycle;Max_cycle;Signal;HPM_P1;HPM_P2
2024/02/09 00:00:22;;;;;;;7.30;2.75;;;;;;;;;;5024181;28;20321;-53
2024/02/09 00:02:49;;;;;;;8.57;2.92;;;;;;;;;;5024089;28;20055;-46
2024/02/09 00:05:17;;;;;;;6.55;2.75;;;;;;;;;;5024300;28;20206;-46
2024/02/09 00:07:48;;;;;;;4.00;2.88;;;;;;;;;;5023893;28;20133;-50
2024/02/09 00:10:18;;;;;;;8.75;2.97;;;;;;;;;;5023956;28;20064;-46
2024/02/09 00:12:45;;;;;;;5.38;2.83;;;;;;;;;;5024020;28;20187;-46
2024/02/09 00:15:12;;;;;;;6.00;2.92;;;;;;;;;;5024232;28;20337;-49
2024/02/09 00:17:38;;;;;;;9.68;3.20;;;;;;;;;;5023654;28;20238;-45
2024/02/09 00:20:07;;;;;;;8.90;3.17;;;;;;;;;;5024123;28;20026;-49
2024/02/09 00:22:37;;;;;;;7.70;2.90;;;;;;;;;;5024246;28;20271;-51
2024/02/09 00:25:08;;;;;;;7.22;3.03;;;;;;;;;;5023956;28;20037;-50
2024/02/09 00:27:38;;;;;;;6.65;2.78;;;;;;;;;;5023804;28;20033;-49
2024/02/09 00:30:05;;;;;;;5.97;2.55;;;;;;;;;;5023879;28;20053;-45
2024/02/09 00:32:32;;;;;;;8.43;2.60;;;;;;;;;;5023764;28;20018;-53
2024/02/09 00:34:59;;;;;;;7.10;2.50;;;;;;;;;;5023968;28;20243;-48
2024/02/09 00:37:28;;;;;;;6.68;2.58;;;;;;;;;;5023225;28;20022;-54
2024/02/09 00:39:55;;;;;;;5.57;2.20;;;;;;;;;;5022562;28;20029;-50
2024/02/09 00:42:23;;;;;;;6.72;2.22;;;;;;;;;;5023312;28;20021;-49
2024/02/09 00:44:49;;;;;;;6.30;2.67;;;;;;;;;;5023409;28;20129;-50
2024/02/09 00:47:16;;;;;;;3.72;1.90;;;;;;;;;;5023417;28;20026;-56
2024/02/09 00:49:46;;;;;;;5.55;2.35;;;;;;;;;;5023718;28;20038;-46
2024/02/09 00:52:14;;;;;;;7.13;1.90;;;;;;;;;;5023707;28;20025;-54
2024/02/09 00:54:41;;;;;;;6.60;2.20;;;;;;;;;;5023653;28;20034;-56
2024/02/09 00:57:08;;;;;;;3.90;2.20;;;;;;;;;;5023501;28;20386;-55
2024/02/09 00:59:38;;;;;;;6.65;1.88;;;;;;;;;;5024173;28;20026;-55
2024/02/09 01:02:06;;;;;;;7.53;2.17;;;;;;;;;;5023598;28;20056;-61
2024/02/09 01:04:36;;;;;;;6.88;2.03;;;;;;;;;;5023261;28;20092;-59
2024/02/09 01:07:06;;;;;;;7.63;2.17;;;;;;;;;;5023741;28;20257;-59
2024/02/09 01:09:34;;;;;;;6.50;2.35;;;;;;;;;;5018745;28;20027;-52
2024/02/09 02:45:13;;;;;;;6.22;2.25;;;;;;;;;;5025132;28;20045;-60
2024/02/09 02:47:40;;;;;;;5.30;2.17;;;;;;;;;;5024848;28;20021;-53
2024/02/09 03:06:41;;;;;;;3.20;1.90;;;;;;;;;;5016355;28;20037;-56
2024/02/09 03:09:08;;;;;;;8.20;1.80;;;;;;;;;;5025305;28;20021;-52
2024/02/09 03:11:34;;;;;;;3.05;2.08;;;;;;;;;;5024797;28;20042;-52
2024/02/09 03:14:01;;;;;;;4.80;2.10;;;;;;;;;;5024966;28;20037;-52
2024/02/09 03:16:27;;;;;;;7.63;2.40;;;;;;;;;;5024849;28;20029;-55
2024/02/09 03:18:54;;;;;;;7.70;2.15;;;;;;;;;;5025123;28;20010;-53
2024/02/09 03:21:25;;;;;;;6.10;2.05;;;;;;;;;;5024602;28;20022;-53
2024/02/09 03:23:53;;;;;;;6.20;2.20;;;;;;;;;;5024877;28;20106;-53
2024/02/09 03:26:24;;;;;;;6.60;2.30;;;;;;;;;;5021838;28;20032;-56
2024/02/09 03:28:51;;;;;;;5.90;2.28;;;;;;;;;;5024603;28;20018;-53
2024/02/09 03:31:17;;;;;;;6.93;2.20;;;;;;;;;;5024443;28;20228;-55
2024/02/09 03:33:44;;;;;;;4.65;2.30;;;;;;;;;;5024148;28;20014;-50
2024/02/09 03:36:20;;;;;;;6.63;2.22;;;;;;;;;;5023706;28;20030;-54
2024/02/09 03:38:49;;;;;;;5.72;2.17;;;;;;;;;;5022941;28;20357;-54
2024/02/09 03:41:16;;;;;;;6.35;2.28;;;;;;;;;;5024063;28;20067;-54
2024/02/09 03:43:43;;;;;;;6.55;2.35;;;;;;;;;;5024532;28;20315;-54
2024/02/09 03:46:09;;;;;;;6.88;2.10;;;;;;;;;;5023686;28;20022;-55
2024/02/09 03:48:36;;;;;;;4.68;2.22;;;;;;;;;;5023154;28;20194;-54
2024/02/09 03:51:02;;;;;;;5.63;2.17;;;;;;;;;;5022843;28;20379;-56
2024/02/09 03:53:33;;;;;;;7.32;2.10;;;;;;;;;;5024000;28;20017;-52
2024/02/09 03:56:00;;;;;;;3.42;1.95;;;;;;;;;;5021351;28;20089;-55
2024/02/09 03:58:27;;;;;;;5.22;2.17;;;;;;;;;;5024333;28;20364;-53
2024/02/09 04:00:53;;;;;;;7.70;1.83;;;;;;;;;;5023937;28;20234;-53
2024/02/09 04:03:20;;;;;;;4.65;1.90;;;;;;;;;;5021070;28;20045;-54
2024/02/09 04:05:47;;;;;;;9.65;2.45;;;;;;;;;;5023947;28;20033;-53
2024/02/09 04:08:13;;;;;;;8.98;2.40;;;;;;;;;;5024063;28;20029;-54
2024/02/09 04:10:40;;;;;;;5.38;2.00;;;;;;;;;;5021140;28;20033;-53
2024/02/09 04:13:07;;;;;;;5.97;1.95;;;;;;;;;;5024039;28;20037;-53
2024/02/09 04:15:33;;;;;;;6.88;2.15;;;;;;;;;;5023324;28;20026;-54
2024/02/09 04:18:03;;;;;;;5.15;2.03;;;;;;;;;;5021782;28;20317;-52
2024/02/09 04:20:30;;;;;;;5.40;1.67;;;;;;;;;;5023784;28;20060;-53
2024/02/09 04:23:00;;;;;;;6.03;2.28;;;;;;;;;;5023044;28;20029;-59
2024/02/09 04:25:27;;;;;;;4.75;2.05;;;;;;;;;;5023650;28;20026;-57
2024/02/09 04:27:54;;;;;;;3.08;1.92;;;;;;;;;;5023870;28;20171;-53
2024/02/09 04:30:21;;;;;;;7.60;2.03;;;;;;;;;;5021017;28;20076;-51
2024/02/09 04:32:48;;;;;;;5.25;2.13;;;;;;;;;;5023455;28;20060;-52
2024/02/09 04:35:15;;;;;;;4.85;2.03;;;;;;;;;;5023632;28;20060;-52
2024/02/09 04:37:42;;;;;;;8.15;2.50;;;;;;;;;;5023667;28;20278;-50
2024/02/09 04:40:09;;;;;;;8.23;2.33;;;;;;;;;;5023540;28;20026;-56
2024/02/09 04:42:35;;;;;;;6.68;2.20;;;;;;;;;;5023597;28;20101;-53
2024/02/09 04:45:02;;;;;;;7.00;2.08;;;;;;;;;;5023662;28;20037;-52
2024/02/09 04:47:28;;;;;;;5.15;2.08;;;;;;;;;;5022892;28;20030;-51
2024/02/09 04:49:55;;;;;;;5.43;2.10;;;;;;;;;;5023458;28;20033;-54
2024/02/09 04:52:27;;;;;;;5.05;2.17;;;;;;;;;;5023584;28;20018;-53
2024/02/09 04:54:54;;;;;;;3.20;1.95;;;;;;;;;;5023389;28;20033;-54
2024/02/09 04:57:21;;;;;;;5.03;2.00;;;;;;;;;;5020963;28;20006;-53
2024/02/09 04:59:48;;;;;;;5.68;2.33;;;;;;;;;;5023490;28;20026;-55
2024/02/09 05:02:14;;;;;;;3.85;2.10;;;;;;;;;;5023203;28;20025;-52
2024/02/09 05:04:41;;;;;;;6.47;2.25;;;;;;;;;;5024464;28;20038;-53
2024/02/09 05:07:07;;;;;;;3.53;2.28;;;;;;;;;;5027284;28;20009;-52
2024/02/09 05:09:34;;;;;;;4.95;2.22;;;;;;;;;;5027442;28;20034;-48
2024/02/09 05:12:00;;;;;;;5.63;2.20;;;;;;;;;;5024458;28;20018;-54
2024/02/09 05:14:29;;;;;;;6.72;2.50;;;;;;;;;;5027553;28;20076;-54
2024/02/09 05:16:56;;;;;;;6.35;2.15;;;;;;;;;;5026782;28;20018;-50
2024/02/09 05:19:22;;;;;;;5.03;2.20;;;;;;;;;;5026867;28;20029;-53
2024/02/09 05:21:49;;;;;;;6.43;2.20;;;;;;;;;;5026877;28;20033;-52
2024/02/09 05:24:18;;;;;;;4.43;2.35;;;;;;;;;;5027040;28;20030;-54
2024/02/09 05:26:44;;;;;;;4.47;2.22;;;;;;;;;;5026366;28;20085;-50
2024/02/09 05:29:11;;;;;;;5.07;2.28;;;;;;;;;;5027140;28;20029;-50
2024/02/09 05:31:41;;;;;;;14.65;2.38;;;;;;;;;;5026476;28;20030;-48
2024/02/09 05:34:08;;;;;;;3.28;2.25;;;;;;;;;;5026997;28;20018;-51
2024/02/09 05:36:36;;;;;;;6.15;2.33;;;;;;;;;;5026546;28;20170;-47
2024/02/09 05:39:02;;;;;;;5.47;2.30;;;;;;;;;;5023956;28;20022;-51
2024/02/09 05:41:29;;;;;;;7.13;2.60;;;;;;;;;;5026427;28;20053;-51
2024/02/09 05:43:55;;;;;;;6.55;2.72;;;;;;;;;;5026910;28;20014;-50
2024/02/09 05:46:22;;;;;;;7.25;2.40;;;;;;;;;;5026232;28;20026;-51
2024/02/09 05:48:49;;;;;;;6.70;2.58;;;;;;;;;;5026550;28;20026;-47
2024/02/09 05:51:18;;;;;;;5.88;3.05;;;;;;;;;;5025646;28;20056;-50
2024/02/09 05:53:46;;;;;;;5.78;2.70;;;;;;;;;;5026456;28;20021;-51
2024/02/09 05:56:19;;;;;;;5.90;2.92;;;;;;;;;;5021828;28;20029;-44
2024/02/09 05:58:52;;;;;;;7.75;2.88;;;;;;;;;;5021864;28;20201;-50
2024/02/09 06:01:19;;;;;;;7.72;3.40;;;;;;;;;;5025954;28;20026;-48
2024/02/09 06:03:46;;;;;;;4.68;3.47;;;;;;;;;;5025912;28;20384;-49
2024/02/09 06:06:16;;;;;;;6.65;3.28;;;;;;;;;;5026003;28;20341;-57
2024/02/09 06:08:46;;;;;;;5.35;3.28;;;;;;;;;;5022995;28;20088;-47
2024/02/09 06:11:13;;;;;;;6.22;3.70;;;;;;;;;;5025299;28;20377;-48
2024/02/09 06:13:45;;;;;;;7.28;4.13;;;;;;;;;;5025378;28;20022;-53
2024/02/09 06:16:12;;;;;;;7.27;3.77;;;;;;;;;;5025018;28;20029;-55
2024/02/09 06:18:39;;;;;;;5.93;3.60;;;;;;;;;;5026406;28;20202;-56
2024/02/09 06:21:06;;;;;;;4.18;3.60;;;;;;;;;;5025937;28;20254;-58
2024/02/09 06:23:34;;;;;;;5.75;3.92;;;;;;;;;;5026195;28;20034;-57
2024/02/09 06:26:01;;;;;;;6.13;3.90;;;;;;;;;;5025962;28;20025;-50
2024/02/09 06:28:28;;;;;;;7.13;4.03;;;;;;;;;;5024371;28;20064;-53
2024/02/09 06:30:55;;;;;;;8.43;4.15;;;;;;;;;;5025605;28;20041;-56
2024/02/09 06:33:22;;;;;;;4.97;4.25;;;;;;;;;;5026305;28;20022;-55
2024/02/09 06:35:48;;;;;;;7.88;4.60;;;;;;;;;;5025665;28;20026;-48
2024/02/09 06:38:17;;;;;;;5.78;4.25;;;;;;;;;;5026100;28;20034;-55
2024/02/09 06:40:44;;;;;;;4.72;4.20;;;;;;;;;;5025784;28;20028;-58
2024/02/09 06:43:10;;;;;;;7.32;4.00;;;;;;;;;;5025385;28;20336;-51
2024/02/09 06:45:37;;;;;;;5.30;4.22;;;;;;;;;;5025051;28;20123;-51
2024/02/09 06:48:07;;;;;;;6.90;4.60;;;;;;;;;;5025748;28;20233;-49
2024/02/09 06:50:35;;;;;;;6.57;4.13;;;;;;;;;;5025374;28;20025;-48
2024/02/09 06:53:05;;;;;;;5.50;4.07;;;;;;;;;;5025632;28;20021;-45
2024/02/09 06:55:32;;;;;;;7.90;4.53;;;;;;;;;;5025341;28;20052;-52
2024/02/09 06:57:59;;;;;;;5.65;4.00;;;;;;;;;;5025373;28;20032;-51
2024/02/09 07:00:26;;;;;;;6.45;4.15;;;;;;;;;;5025251;28;20306;-46
2024/02/09 07:02:53;;;;;;;6.88;4.15;;;;;;;;;;5025109;28;20027;-46
2024/02/09 07:05:20;;;;;;;5.13;4.07;;;;;;;;;;5025043;28;20089;-46
2024/02/09 07:07:49;;;;;;;7.20;4.15;;;;;;;;;;5025486;28;20049;-46
2024/02/09 07:10:22;;;;;;;5.32;3.88;;;;;;;;;;5025021;28;20064;-46
2024/02/09 07:12:51;;;;;;;6.57;4.00;;;;;;;;;;5025033;28;20301;-53
2024/02/09 07:15:18;;;;;;;6.32;3.90;;;;;;;;;;5025036;28;20053;-58
2024/02/09 07:17:45;;;;;;;6.45;4.05;;;;;;;;;;5025035;28;20040;-46
2024/02/09 07:20:12;;;;;;;6.55;4.07;;;;;;;;;;5024854;28;20053;-49
2024/02/09 07:22:39;;;;;;;5.78;3.67;;;;;;;;;;5025355;28;20030;-48
2024/02/09 07:25:06;;;;;;;6.15;3.70;;;;;;;;;;5024749;28;20036;-48
2024/02/09 07:27:32;;;;;;;5.65;3.90;;;;;;;;;;5024565;28;20310;-52
2024/02/09 07:29:59;;;;;;;7.68;3.67;;;;;;;;;;5024216;28;20217;-51
2024/02/09 07:32:26;;;;;;;8.45;4.32;;;;;;;;;;5024644;28;20056;-47
2024/02/09 07:34:52;;;;;;;17.05;7.13;;;;;;;;;;5024633;28;20017;-45
2024/02/09 07:37:20;;;;;;;19.05;6.88;;;;;;;;;;5024649;28;20018;-54
2024/02/09 07:39:47;;;;;;;16.85;7.43;;;;;;;;;;5024544;28;20217;-58
2024/02/09 07:42:13;;;;;;;14.23;7.50;;;;;;;;;;5024242;28;20022;-57
2024/02/09 07:44:40;;;;;;;13.10;6.05;;;;;;;;;;5024490;28;20218;-47
2024/02/09 07:47:07;;;;;;;16.23;6.90;;;;;;;;;;5024456;28;20025;-50
2024/02/09 07:49:34;;;;;;;17.20;6.63;;;;;;;;;;5024699;28;20094;-56
2024/02/09 07:52:01;;;;;;;13.43;5.80;;;;;;;;;;5024566;28;20026;-55
2024/02/09 07:54:31;;;;;;;8.73;5.25;;;;;;;;;;5024746;28;20029;-46
2024/02/09 07:56:58;;;;;;;11.25;5.63;;;;;;;;;;5024134;28;20025;-52
2024/02/09 07:59:25;;;;;;;9.15;5.25;;;;;;;;;;5024153;28;20026;-51
2024/02/09 08:01:52;;;;;;;10.70;5.20;;;;;;;;;;5024297;28;20334;-46
2024/02/09 08:04:19;;;;;;;8.95;4.30;;;;;;;;;;5023861;28;20349;-55
2024/02/09 08:06:46;;;;;;;9.35;4.88;;;;;;;;;;5024464;28;20258;-50
2024/02/09 08:09:12;;;;;;;8.57;4.60;;;;;;;;;;5024577;28;20053;-49
2024/02/09 08:11:41;;;;;;;6.63;4.28;;;;;;;;;;5023975;28;20026;-48
2024/02/09 08:14:09;;;;;;;7.78;5.03;;;;;;;;;;5024433;28;20032;-48
2024/02/09 08:16:35;;;;;;;9.02;4.47;;;;;;;;;;5024295;28;20018;-52
2024/02/09 08:19:02;;;;;;;7.22;4.38;;;;;;;;;;5023815;28;20018;-55
2024/02/09 08:21:28;;;;;;;9.82;4.40;;;;;;;;;;5024273;28;20026;-57
2024/02/09 08:23:55;;;;;;;8.77;4.80;;;;;;;;;;5024432;28;20025;-50
2024/02/09 08:26:22;;;;;;;6.00;3.97;;;;;;;;;;5023922;28;20187;-47
2024/02/09 08:28:48;;;;;;;7.50;4.50;;;;;;;;;;5024337;28;20029;-47
2024/02/09 08:31:16;;;;;;;10.15;4.50;;;;;;;;;;5023976;28;20030;-49
2024/02/09 08:33:43;;;;;;;5.85;3.72;;;;;;;;;;5024235;28;20026;-53
2024/02/09 08:36:12;;;;;;;5.53;4.00;;;;;;;;;;5024062;28;20034;-49
2024/02/09 08:38:39;;;;;;;9.65;4.32;;;;;;;;;;5026536;28;20136;-52
2024/02/09 08:41:07;;;;;;;6.13;4.00;;;;;;;;;;5027870;28;20049;-49
2024/02/09 08:43:34;;;;;;;6.28;4.15;;;;;;;;;;5028077;28;20033;-52
2024/02/09 08:46:02;;;;;;;7.13;4.25;;;;;;;;;;5027790;28;20250;-51
2024/02/09 08:48:29;;;;;;;7.25;4.38;;;;;;;;;;5027730;28;20256;-48
2024/02/09 08:50:56;;;;;;;7.10;3.88;;;;;;;;;;5027587;28;20033;-50
2024/02/09 08:53:22;;;;;;;7.63;3.78;;;;;;;;;;5027983;28;20084;-52
2024/02/09 08:55:49;;;;;;;6.82;4.03;;;;;;;;;;5027536;28;20045;-52
2024/02/09 08:58:19;;;;;;;7.47;4.28;;;;;;;;;;5027892;28;20030;-47
2024/02/09 09:00:46;;;;;;;6.00;3.88;;;;;;;;;;5027479;28;20029;-49
2024/02/09 09:03:14;;;;;;;9.60;4.20;;;;;;;;;;5027053;28;20053;-56
2024/02/09 09:05:42;;;;;;;6.53;4.13;;;;;;;;;;5027412;28;20428;-55
2024/02/09 09:08:09;;;;;;;8.27;4.10;;;;;;;;;;5027622;28;20180;-48
2024/02/09 09:10:38;;;;;;;4.85;3.95;;;;;;;;;;5027148;28;20092;-49
2024/02/09 09:13:10;;;;;;;7.00;4.20;;;;;;;;;;5027525;28;20045;-56
2024/02/09 09:15:43;;;;;;;7.35;3.92;;;;;;;;;;5027306;28;20029;-55
2024/02/09 09:18:10;;;;;;;4.25;3.85;;;;;;;;;;5027374;28;20064;-48
2024/02/09 09:20:37;;;;;;;6.05;3.90;;;;;;;;;;5027241;28;20034;-53
2024/02/09 09:23:04;;;;;;;4.85;3.90;;;;;;;;;;5027348;28;20049;-59
2024/02/09 09:25:30;;;;;;;5.85;3.90;;;;;;;;;;5026985;28;20061;-49
2024/02/09 09:27:57;;;;;;;6.65;4.00;;;;;;;;;;5027286;28;20022;-51
2024/02/09 09:30:24;;;;;;;5.43;4.18;;;;;;;;;;5026853;28;20092;-49
2024/02/09 09:32:51;;;;;;;6.50;4.43;;;;;;;;;;5026955;28;20325;-50
2024/02/09 09:35:17;;;;;;;4.90;4.40;;;;;;;;;;5027109;28;20337;-55
2024/02/09 09:37:44;;;;;;;7.43;4.10;;;;;;;;;;5026986;28;20029;-48
2024/02/09 09:40:12;;;;;;;5.13;4.20;;;;;;;;;;5026715;28;20030;-54
2024/02/09 09:42:42;;;;;;;5.82;3.78;;;;;;;;;;5026886;28;20018;-49
2024/02/09 09:45:08;;;;;;;6.20;4.32;;;;;;;;;;5026970;28;20289;-54
2024/02/09 09:47:38;;;;;;;7.05;4.35;;;;;;;;;;5026615;28;20022;-50
2024/02/09 09:50:07;;;;;;;9.52;4.25;;;;;;;;;;5026620;28;20054;-54
2024/02/09 09:52:41;;;;;;;5.30;4.38;;;;;;;;;;5026519;28;20037;-50
2024/02/09 09:55:10;;;;;;;8.25;4.72;;;;;;;;;;5026692;28;20049;-48
2024/02/09 09:57:38;;;;;;;6.15;4.50;;;;;;;;;;5026553;28;20021;-55
2024/02/09 10:00:05;;;;;;;5.82;4.38;;;;;;;;;;5026265;28;20033;-54
2024/02/09 10:02:32;;;;;;;5.43;4.35;;;;;;;;;;5026350;28;20025;-55
2024/02/09 10:04:59;;;;;;;5.80;4.35;;;;;;;;;;5026210;28;20056;-61
2024/02/09 10:07:25;;;;;;;8.20;5.45;;;;;;;;;;5026120;28;20026;-54
2024/02/09 10:09:52;;;;;;;10.07;6.28;;;;;;;;;;5026404;28;20276;-56
2024/02/09 10:12:22;;;;;;;9.43;5.43;;;;;;;;;;5026112;28;20022;-52
2024/02/09 10:14:48;;;;;;;7.22;4.57;;;;;;;;;;5026045;28;20046;-51
2024/02/09 10:17:15;;;;;;;6.45;4.32;;;;;;;;;;5025593;28;20029;-50
2024/02/09 10:19:42;;;;;;;4.38;3.88;;;;;;;;;;5026097;28;20029;-52
2024/02/09 10:22:09;;;;;;;5.18;3.53;;;;;;;;;;5025805;28;20022;-55
2024/02/09 10:24:40;;;;;;;5.28;3.90;;;;;;;;;;5026502;28;20068;-56
2024/02/09 10:27:10;;;;;;;6.03;3.55;;;;;;;;;;5025949;28;20026;-57
2024/02/09 10:29:38;;;;;;;5.65;3.38;;;;;;;;;;5026154;28;20034;-53
2024/02/09 10:32:07;;;;;;;8.63;3.95;;;;;;;;;;5025825;28;20026;-58
2024/02/09 10:34:33;;;;;;;6.97;3.88;;;;;;;;;;5026231;28;20028;-55
2024/02/09 10:37:02;;;;;;;6.38;4.10;;;;;;;;;;5025640;28;20028;-54
2024/02/09 10:39:29;;;;;;;4.55;3.58;;;;;;;;;;5026189;28;20025;-53
2024/02/09 10:42:02;;;;;;;8.52;4.07;;;;;;;;;;5025600;28;20033;-53
2024/02/09 10:44:32;;;;;;;9.05;3.60;;;;;;;;;;5025930;28;20029;-54
2024/02/09 10:47:02;;;;;;;4.68;3.63;;;;;;;;;;5025539;28;20018;-54
2024/02/09 10:49:30;;;;;;;4.32;3.78;;;;;;;;;;5025674;28;20052;-52
2024/02/09 10:52:00;;;;;;;5.82;3.22;;;;;;;;;;5025635;28;20021;-50
2024/02/09 10:54:38;;;;;;;5.22;3.10;;;;;;;;;;5025923;28;20357;-53
2024/02/09 10:57:06;;;;;;;5.80;3.72;;;;;;;;;;5025215;28;20346;-53
2024/02/09 10:59:36;;;;;;;7.82;3.70;;;;;;;;;;5025751;28;20206;-51
2024/02/09 11:02:06;;;;;;;7.53;3.90;;;;;;;;;;5024671;28;20033;-53
2024/02/09 11:04:33;;;;;;;6.75;3.90;;;;;;;;;;5025124;28;20060;-56
2024/02/09 11:07:00;;;;;;;8.50;3.80;;;;;;;;;;5025166;28;20085;-54
2024/02/09 11:09:27;;;;;;;6.95;3.55;;;;;;;;;;5025375;28;20036;-54
2024/02/09 11:11:54;;;;;;;10.35;3.97;;;;;;;;;;5025024;28;20101;-50
2024/02/09 11:14:30;;;;;;;8.73;4.22;;;;;;;;;;5025398;28;20033;-51
2024/02/09 11:17:00;;;;;;;7.38;3.63;;;;;;;;;;5024789;28;20213;-53
2024/02/09 11:19:27;;;;;;;7.45;3.80;;;;;;;;;;5024895;28;20046;-55
2024/02/09 11:22:00;;;;;;;12.45;3.97;;;;;;;;;;5024825;28;20033;-52
2024/02/09 11:24:27;;;;;;;9.57;3.60;;;;;;;;;;5025141;28;20036;-54
2024/02/09 11:26:55;;;;;;;6.35;3.58;;;;;;;;;;5025065;28;20029;-53
2024/02/09 11:29:22;;;;;;;12.32;4.38;;;;;;;;;;5025086;28;20053;-51
2024/02/09 11:32:05;;;;;;;17.00;4.38;;;;;;;;;;5024602;28;20046;-54
2024/02/09 11:34:32;;;;;;;;;;;;;;;;;;5025563;28;20089;-49
2024/02/09 11:37:00;;;;;;;12.73;4.28;;;;;;;;;;5024651;28;19906;-53
2024/02/09 11:39:30;;;;;;;12.15;4.38;;;;;;;;;;5024084;28;20369;-57
2024/02/09 11:41:56;;;;;;;12.27;4.40;;;;;;;;;;5024505;28;20034;-54
2024/02/09 11:44:23;;;;;;;15.95;4.82;;;;;;;;;;5024941;28;20025;-53
2024/02/09 11:46:55;;;;;;;10.13;4.20;;;;;;;;;;5024421;28;20089;-52
2024/02/09 11:49:23;;;;;;;7.90;4.35;;;;;;;;;;5025171;28;20017;-55
2024/02/09 11:51:50;;;;;;;10.65;4.65;;;;;;;;;;5024604;28;20249;-56
2024/02/09 11:54:17;;;;;;;7.53;4.03;;;;;;;;;;5024843;28;20032;-62
2024/02/09 11:56:48;;;;;;;5.45;4.40;;;;;;;;;;5024779;28;20022;-56
2024/02/09 11:59:14;;;;;;;5.82;3.90;;;;;;;;;;5024575;28;20026;-56
2024/02/09 12:01:42;;;;;;;10.05;4.40;;;;;;;;;;5024459;28;20021;-54
2024/02/09 12:04:09;;;;;;;10.57;4.50;;;;;;;;;;5024195;28;20100;-53
2024/02/09 12:06:39;;;;;;;10.18;4.32;;;;;;;;;;5023387;28;20090;-51
2024/02/09 12:09:05;;;;;;;7.60;3.95;;;;;;;;;;5023633;28;20018;-60
2024/02/09 12:11:32;;;;;;;5.38;4.07;;;;;;;;;;5023907;28;20187;-55
2024/02/09 12:13:58;;;;;;;7.13;4.18;;;;;;;;;;5023907;28;20305;-57
2024/02/09 12:16:25;;;;;;;10.80;4.22;;;;;;;;;;5024373;28;20314;-56
2024/02/09 12:18:57;;;;;;;7.28;4.00;;;;;;;;;;5024662;28;20206;-58
2024/02/09 12:21:24;;;;;;;5.05;4.22;;;;;;;;;;5024120;28;20026;-54
2024/02/09 12:23:51;;;;;;;6.18;4.10;;;;;;;;;;5024435;28;20036;-58
2024/02/09 12:26:21;;;;;;;8.10;4.60;;;;;;;;;;5023989;28;20018;-52
2024/02/09 12:28:48;;;;;;;8.45;4.28;;;;;;;;;;5024490;28;20024;-55
2024/02/09 12:31:16;;;;;;;11.48;4.32;;;;;;;;;;5023857;28;20045;-56
2024/02/09 12:33:44;;;;;;;6.93;4.32;;;;;;;;;;5024063;28;20045;-55
2024/02/09 12:36:11;;;;;;;7.95;3.97;;;;;;;;;;5024042;28;20017;-54
2024/02/09 12:38:41;;;;;;;5.68;3.67;;;;;;;;;;5024262;28;20081;-50
2024/02/09 12:41:12;;;;;;;7.03;3.72;;;;;;;;;;5023915;28;20022;-55
2024/02/09 12:43:39;;;;;;;7.50;4.07;;;;;;;;;;5024208;28;20025;-57
2024/02/09 12:46:06;;;;;;;8.57;4.40;;;;;;;;;;5023901;28;20025;-48
2024/02/09 12:48:36;;;;;;;10.98;4.30;;;;;;;;;;5023875;28;20030;-55
2024/02/09 12:51:05;;;;;;;11.18;4.07;;;;;;;;;;5023735;28;20026;-55
2024/02/09 12:53:34;;;;;;;10.13;4.03;;;;;;;;;;5024079;28;20022;-54
2024/02/09 12:56:02;;;;;;;8.95;3.92;;;;;;;;;;5023848;28;20022;-54
2024/02/09 12:58:30;;;;;;;15.90;4.30;;;;;;;;;;5023547;28;20048;-54
2024/02/09 13:00:57;;;;;;;9.52;3.90;;;;;;;;;;5023676;28;20215;-50
2024/02/09 13:03:26;;;;;;;10.43;3.92;;;;;;;;;;5023294;28;20046;-55
2024/02/09 13:05:52;;;;;;;7.07;3.92;;;;;;;;;;5023889;28;20028;-53
2024/02/09 13:08:21;;;;;;;7.25;3.80;;;;;;;;;;5023930;28;20048;-54
2024/02/09 13:10:49;;;;;;;7.85;4.05;;;;;;;;;;5023389;28;20243;-55
2024/02/09 13:13:17;;;;;;;7.35;4.32;;;;;;;;;;5023824;28;20030;-55
2024/02/09 13:15:44;;;;;;;6.68;4.00;;;;;;;;;;5023829;28;20029;-55
2024/02/09 13:18:12;;;;;;;8.25;3.80;;;;;;;;;;5023591;28;20022;-51
2024/02/09 13:20:39;;;;;;;4.95;3.70;;;;;;;;;;5023753;28;20038;-53
2024/02/09 13:23:06;;;;;;;5.40;3.55;;;;;;;;;;5023905;28;20050;-58
2024/02/09 13:25:37;;;;;;;5.95;3.50;;;;;;;;;;5027217;28;20037;-56
2024/02/09 13:28:06;;;;;;;5.75;3.60;;;;;;;;;;5027467;28;20030;-54
2024/02/09 13:30:33;;;;;;;4.03;3.00;;;;;;;;;;5026855;28;20038;-54
2024/02/09 13:33:00;;;;;;;5.28;3.42;;;;;;;;;;5027347;28;20198;-56
2024/02/09 13:35:28;;;;;;;7.10;3.63;;;;;;;;;;5027257;28;20040;-55
2024/02/09 13:37:55;;;;;;;5.18;3.20;;;;;;;;;;5026914;28;20045;-53
2024/02/09 13:40:22;;;;;;;5.20;3.45;;;;;;;;;;5027089;28;20029;-52
2024/02/09 13:42:52;;;;;;;20.10;4.60;;;;;;;;;;5026553;28;20040;-50
2024/02/09 13:45:26;;;;;;;6.82;3.75;;;;;;;;;;5026431;28;20021;-57
2024/02/09 13:47:53;;;;;;;6.82;3.78;;;;;;;;;;5019417;28;20022;-56
2024/02/09 13:50:25;;;;;;;15.95;5.28;;;;;;;;;;5007033;28;20216;-53
2024/02/09 13:52:53;;;;;;;9.35;4.47;;;;;;;;;;5011777;28;20022;-55
2024/02/09 13:55:22;;;;;;;5.22;4.03;;;;;;;;;;5025868;28;20036;-53
2024/02/09 13:57:54;;;;;;;8.88;4.30;;;;;;;;;;5026426;28;20113;-55
2024/02/09 14:00:21;;;;;;;;;;;;;;;;;;5026752;28;20034;-51
2024/02/09 14:02:48;;;;;;;4.72;3.67;;;;;;;;;;5026106;28;19905;-52
2024/02/09 14:05:16;;;;;;;7.95;4.20;;;;;;;;;;5026368;28;20036;-50
2024/02/09 14:07:43;;;;;;;8.70;5.63;;;;;;;;;;5026622;28;20026;-51
2024/02/09 14:10:13;;;;;;;6.28;4.00;;;;;;;;;;5026228;28;20261;-54
2024/02/09 14:12:39;;;;;;;6.60;4.20;;;;;;;;;;5026180;28;20033;-55
2024/02/09 14:15:08;;;;;;;8.07;4.10;;;;;;;;;;5026313;28;20096;-55
2024/02/09 14:17:38;;;;;;;6.72;4.07;;;;;;;;;;5026473;28;20324;-53
2024/02/09 14:20:05;;;;;;;6.72;4.78;;;;;;;;;;5026140;28;20029;-55
2024/02/09 14:22:32;;;;;;;5.15;4.18;;;;;;;;;;5026038;28;20305;-55
2024/02/09 14:24:59;;;;;;;5.35;4.55;;;;;;;;;;5025952;28;20093;-49
2024/02/09 14:27:26;;;;;;;5.82;4.40;;;;;;;;;;5025825;28;20018;-55
2024/02/09 14:29:55;;;;;;;6.63;4.60;;;;;;;;;;5025467;28;20349;-57
2024/02/09 14:32:24;;;;;;;6.70;4.45;;;;;;;;;;5025788;28;20214;-57
2024/02/09 14:34:51;;;;;;;7.78;4.43;;;;;;;;;;5024210;28;20060;-59
2024/02/09 14:37:18;;;;;;;6.40;4.60;;;;;;;;;;5025305;28;20045;-56
2024/02/09 14:39:45;;;;;;;5.00;3.83;;;;;;;;;;5025903;28;20356;-55
2024/02/09 14:42:12;;;;;;;4.85;4.22;;;;;;;;;;5025009;28;20026;-54
2024/02/09 14:44:43;;;;;;;6.60;4.53;;;;;;;;;;5023119;28;20101;-54
2024/02/09 14:47:10;;;;;;;7.88;5.10;;;;;;;;;;5025622;28;20068;-53
2024/02/09 14:49:37;;;;;;;10.60;5.68;;;;;;;;;;5025816;28;20037;-51
2024/02/09 14:52:06;;;;;;;14.40;6.07;;;;;;;;;;5025517;28;20022;-55
2024/02/09 14:54:33;;;;;;;11.80;5.75;;;;;;;;;;5025924;28;20018;-51
2024/02/09 14:57:00;;;;;;;14.98;6.57;;;;;;;;;;5025259;28;20045;-50
2024/02/09 14:59:26;;;;;;;14.35;7.50;;;;;;;;;;5025862;28;20029;-50
2024/02/09 15:01:55;;;;;;;18.13;7.63;;;;;;;;;;5025456;28;20029;-55
2024/02/09 15:04:23;;;;;;;16.73;7.32;;;;;;;;;;5025074;28;20037;-49
2024/02/09 15:06:51;;;;;;;11.18;6.38;;;;;;;;;;5025201;28;20033;-54
2024/02/09 15:09:19;;;;;;;23.00;6.60;;;;;;;;;;5025691;28;20216;-53
2024/02/09 15:11:46;;;;;;;12.95;5.65;;;;;;;;;;5025114;28;20076;-53
2024/02/09 15:14:12;;;;;;;13.65;5.80;;;;;;;;;;5025664;28;20028;-56
2024/02/09 15:16:42;;;;;;;12.32;5.80;;;;;;;;;;5025057;28;20025;-52
2024/02/09 15:19:12;;;;;;;11.45;5.90;;;;;;;;;;5025361;28;20017;-53
2024/02/09 15:21:48;;;;;;;12.73;5.65;;;;;;;;;;5021840;28;20033;-54
2024/02/09 15:24:15;;;;;;;8.35;5.20;;;;;;;;;;5012393;28;20025;-48
2024/02/09 15:26:42;;;;;;;5.10;4.60;;;;;;;;;;5022024;28;20084;-50
2024/02/09 15:29:09;;;;;;;8.90;4.47;;;;;;;;;;5019962;28;20049;-56
2024/02/09 15:31:37;;;;;;;7.80;4.65;;;;;;;;;;5014725;28;20218;-58
2024/02/09 15:34:04;;;;;;;5.15;4.75;;;;;;;;;;5020136;28;20021;-54
2024/02/09 15:36:32;;;;;;;6.95;4.68;;;;;;;;;;5019765;28;20329;-55
2024/02/09 15:38:59;;;;;;;6.82;4.75;;;;;;;;;;5019411;28;20021;-54
2024/02/09 15:41:27;;;;;;;6.45;5.25;;;;;;;;;;5019619;28;20033;-51
2024/02/09 15:43:54;;;;;;;7.60;5.10;;;;;;;;;;5019529;28;20029;-48
2024/02/09 15:46:21;;;;;;;7.15;5.82;;;;;;;;;;5016114;28;20093;-52
2024/02/09 15:48:52;;;;;;;9.00;5.95;;;;;;;;;;5009378;28;20037;-51
2024/02/09 15:51:23;;;;;;;8.95;6.47;;;;;;;;;;5012075;28;20034;-53
2024/02/09 15:53:53;;;;;;;8.32;6.03;;;;;;;;;;5007434;28;20061;-49
2024/02/09 15:56:21;;;;;;;6.90;5.57;;;;;;;;;;5022357;28;20014;-56
2024/02/09 15:58:51;;;;;;;6.95;5.80;;;;;;;;;;5011584;28;20018;-52
2024/02/09 16:01:19;;;;;;;10.10;5.38;;;;;;;;;;5005348;28;20022;-49
2024/02/09 16:03:50;;;;;;;8.52;5.63;;;;;;;;;;5008426;28;20041;-56
2024/02/09 16:06:17;;;;;;;6.40;5.35;;;;;;;;;;5005149;28;20210;-55
2024/02/09 16:08:44;;;;;;;13.00;5.80;;;;;;;;;;5007755;28;20040;-49
2024/02/09 16:11:11;;;;;;;7.65;5.00;;;;;;;;;;5009399;28;20097;-54
2024/02/09 16:13:38;;;;;;;10.30;5.65;;;;;;;;;;5015140;28;20014;-53
2024/02/09 16:16:07;;;;;;;7.78;5.55;;;;;;;;;;5013855;28;20041;-47
2024/02/09 16:18:46;;;;;;;8.18;5.32;;;;;;;;;;5014658;28;20026;-53
2024/02/09 16:21:14;;;;;;;8.20;5.43;;;;;;;;;;5012775;28;20037;-54
2024/02/09 16:23:47;;;;;;;11.68;7.35;;;;;;;;;;5008338;28;20022;-52
2024/02/09 16:26:16;;;;;;;7.82;6.65;;;;;;;;;;5012672;28;20038;-50
2024/02/09 16:28:43;;;;;;;10.68;6.65;;;;;;;;;;5022933;28;20089;-52
2024/02/09 16:31:10;;;;;;;7.47;6.50;;;;;;;;;;5020882;28;20037;-52
2024/02/09 16:33:36;;;;;;;7.93;5.93;;;;;;;;;;5015416;28;20026;-53